sensor_id;sensor_type;location;lat;lon;timestamp;P1;durP1;ratioP1;P2;durP2;ratioP2
12900;SDS011;6518;50.930;5.344;2023-03-11T00:01:32;12.87;;;2.70;;
12900;SDS011;6518;50.930;5.344;2023-03-11T00:03:59;7.27;;;2.07;;
12900;SDS011;6518;50.930;5.344;2023-03-11T00:06:26;7.23;;;2.17;;
12900;SDS011;6518;50.930;5.344;2023-03-11T00:08:53;9.77;;;2.20;;
12900;SDS011;6518;50.930;5.344;2023-03-11T00:11:20;6.33;;;1.93;;
12900;SDS011;6518;50.930;5.344;2023-03-11T00:13:46;7.77;;;2.70;;
12900;SDS011;6518;50.930;5.344;2023-03-11T00:16:15;8.90;;;2.33;;
12900;SDS011;6518;50.930;5.344;2023-03-11T00:18:41;5.73;;;2.10;;
12900;SDS011;6518;50.930;5.344;2023-03-11T00:21:12;9.77;;;2.50;;
12900;SDS011;6518;50.930;5.344;2023-03-11T00:23:40;11.17;;;3.50;;
12900;SDS011;6518;50.930;5.344;2023-03-11T00:26:07;8.80;;;2.50;;
12900;SDS011;6518;50.930;5.344;2023-03-11T00:28:34;6.00;;;2.87;;
12900;SDS011;6518;50.930;5.344;2023-03-11T00:31:01;7.67;;;2.73;;
12900;SDS011;6518;50.930;5.344;2023-03-11T00:33:29;8.13;;;2.67;;
12900;SDS011;6518;50.930;5.344;2023-03-11T00:35:56;13.63;;;2.90;;
12900;SDS011;6518;50.930;5.344;2023-03-11T00:38:23;10.60;;;2.70;;
12900;SDS011;6518;50.930;5.344;2023-03-11T00:40:50;9.60;;;3.20;;
12900;SDS011;6518;50.930;5.344;2023-03-11T00:43:17;6.97;;;2.57;;
12900;SDS011;6518;50.930;5.344;2023-03-11T00:45:44;8.00;;;2.77;;
12900;SDS011;6518;50.930;5.344;2023-03-11T00:48:11;9.87;;;2.97;;
12900;SDS011;6518;50.930;5.344;2023-03-11T00:50:40;11.80;;;3.17;;
12900;SDS011;6518;50.930;5.344;2023-03-11T00:53:08;7.77;;;2.80;;
12900;SDS011;6518;50.930;5.344;2023-03-11T00:55:36;6.23;;;2.50;;
12900;SDS011;6518;50.930;5.344;2023-03-11T00:58:03;10.07;;;2.83;;
12900;SDS011;6518;50.930;5.344;2023-03-11T01:00:31;11.97;;;3.43;;
12900;SDS011;6518;50.930;5.344;2023-03-11T01:02:59;11.83;;;3.70;;
12900;SDS011;6518;50.930;5.344;2023-03-11T01:05:27;9.43;;;3.10;;
12900;SDS011;6518;50.930;5.344;2023-03-11T01:07:58;9.30;;;3.13;;
12900;SDS011;6518;50.930;5.344;2023-03-11T01:10:25;7.67;;;2.93;;
12900;SDS011;6518;50.930;5.344;2023-03-11T01:12:52;7.33;;;2.80;;
12900;SDS011;6518;50.930;5.344;2023-03-11T01:15:20;10.60;;;3.43;;
12900;SDS011;6518;50.930;5.344;2023-03-11T01:17:48;6.10;;;3.03;;
12900;SDS011;6518;50.930;5.344;2023-03-11T01:20:15;11.57;;;3.13;;
12900;SDS011;6518;50.930;5.344;2023-03-11T01:22:42;8.40;;;3.40;;
12900;SDS011;6518;50.930;5.344;2023-03-11T01:25:12;5.70;;;2.87;;
12900;SDS011;6518;50.930;5.344;2023-03-11T01:27:39;8.43;;;3.10;;
12900;SDS011;6518;50.930;5.344;2023-03-11T01:30:07;8.73;;;3.30;;
12900;SDS011;6518;50.930;5.344;2023-03-11T01:32:38;7.60;;;2.63;;
12900;SDS011;6518;50.930;5.344;2023-03-11T01:35:05;9.67;;;3.27;;
12900;SDS011;6518;50.930;5.344;2023-03-11T01:37:33;8.67;;;3.00;;
12900;SDS011;6518;50.930;5.344;2023-03-11T01:40:00;10.50;;;3.03;;
12900;SDS011;6518;50.930;5.344;2023-03-11T01:42:28;10.27;;;2.87;;
12900;SDS011;6518;50.930;5.344;2023-03-11T01:44:54;8.17;;;2.50;;
12900;SDS011;6518;50.930;5.344;2023-03-11T01:47:32;6.60;;;2.93;;
12900;SDS011;6518;50.930;5.344;2023-03-11T01:50:02;6.47;;;2.80;;
12900;SDS011;6518;50.930;5.344;2023-03-11T01:52:30;12.13;;;3.23;;
12900;SDS011;6518;50.930;5.344;2023-03-11T01:54:57;8.93;;;2.87;;
12900;SDS011;6518;50.930;5.344;2023-03-11T01:57:24;10.83;;;3.60;;
12900;SDS011;6518;50.930;5.344;2023-03-11T01:59:54;7.63;;;3.37;;
12900;SDS011;6518;50.930;5.344;2023-03-11T02:02:24;8.53;;;3.23;;
12900;SDS011;6518;50.930;5.344;2023-03-11T02:04:58;8.53;;;3.30;;
12900;SDS011;6518;50.930;5.344;2023-03-11T02:07:26;7.13;;;3.63;;
12900;SDS011;6518;50.930;5.344;2023-03-11T02:09:52;10.57;;;3.70;;
12900;SDS011;6518;50.930;5.344;2023-03-11T02:12:19;8.57;;;3.40;;
12900;SDS011;6518;50.930;5.344;2023-03-11T02:14:47;10.00;;;3.63;;
12900;SDS011;6518;50.930;5.344;2023-03-11T02:17:18;8.43;;;3.50;;
12900;SDS011;6518;50.930;5.344;2023-03-11T02:19:56;8.90;;;3.63;;
12900;SDS011;6518;50.930;5.344;2023-03-11T02:22:31;13.00;;;4.27;;
12900;SDS011;6518;50.930;5.344;2023-03-11T02:25:00;11.63;;;4.30;;
12900;SDS011;6518;50.930;5.344;2023-03-11T02:27:35;8.67;;;3.57;;
12900;SDS011;6518;50.930;5.344;2023-03-11T02:30:06;7.13;;;3.43;;
12900;SDS011;6518;50.930;5.344;2023-03-11T02:32:35;10.90;;;3.90;;
12900;SDS011;6518;50.930;5.344;2023-03-11T02:35:02;6.37;;;3.20;;
12900;SDS011;6518;50.930;5.344;2023-03-11T02:37:30;13.60;;;3.77;;
12900;SDS011;6518;50.930;5.344;2023-03-11T02:40:09;8.93;;;3.43;;
12900;SDS011;6518;50.930;5.344;2023-03-11T02:43:08;9.20;;;3.50;;
12900;SDS011;6518;50.930;5.344;2023-03-11T02:45:37;9.10;;;3.20;;
12900;SDS011;6518;50.930;5.344;2023-03-11T02:48:06;6.17;;;3.10;;
12900;SDS011;6518;50.930;5.344;2023-03-11T02:50:35;10.83;;;3.57;;
12900;SDS011;6518;50.930;5.344;2023-03-11T02:53:02;8.03;;;3.60;;
12900;SDS011;6518;50.930;5.344;2023-03-11T02:55:29;6.53;;;3.33;;
12900;SDS011;6518;50.930;5.344;2023-03-11T02:57:56;10.57;;;3.60;;
12900;SDS011;6518;50.930;5.344;2023-03-11T03:00:25;6.53;;;3.07;;
12900;SDS011;6518;50.930;5.344;2023-03-11T03:02:51;7.87;;;3.47;;
12900;SDS011;6518;50.930;5.344;2023-03-11T03:05:19;10.53;;;3.10;;
12900;SDS011;6518;50.930;5.344;2023-03-11T03:07:46;5.77;;;3.10;;
12900;SDS011;6518;50.930;5.344;2023-03-11T03:10:14;10.63;;;3.60;;
12900;SDS011;6518;50.930;5.344;2023-03-11T03:12:41;6.80;;;3.60;;
12900;SDS011;6518;50.930;5.344;2023-03-11T03:15:09;10.20;;;4.20;;
12900;SDS011;6518;50.930;5.344;2023-03-11T03:17:38;10.00;;;3.70;;
12900;SDS011;6518;50.930;5.344;2023-03-11T03:20:06;12.40;;;3.33;;
12900;SDS011;6518;50.930;5.344;2023-03-11T03:22:36;7.03;;;3.60;;
12900;SDS011;6518;50.930;5.344;2023-03-11T03:25:03;10.27;;;3.23;;
12900;SDS011;6518;50.930;5.344;2023-03-11T03:27:30;7.53;;;3.40;;
12900;SDS011;6518;50.930;5.344;2023-03-11T03:29:58;13.03;;;3.50;;
12900;SDS011;6518;50.930;5.344;2023-03-11T03:32:25;8.03;;;2.93;;
12900;SDS011;6518;50.930;5.344;2023-03-11T03:34:53;10.00;;;2.90;;
12900;SDS011;6518;50.930;5.344;2023-03-11T03:37:23;12.37;;;3.60;;
12900;SDS011;6518;50.930;5.344;2023-03-11T03:39:50;8.00;;;3.03;;
12900;SDS011;6518;50.930;5.344;2023-03-11T03:42:17;8.83;;;3.30;;
12900;SDS011;6518;50.930;5.344;2023-03-11T03:44:44;5.90;;;3.00;;
12900;SDS011;6518;50.930;5.344;2023-03-11T03:47:11;6.67;;;2.87;;
12900;SDS011;6518;50.930;5.344;2023-03-11T03:49:37;10.93;;;3.23;;
12900;SDS011;6518;50.930;5.344;2023-03-11T03:52:06;8.33;;;3.07;;
12900;SDS011;6518;50.930;5.344;2023-03-11T03:54:34;9.87;;;3.00;;
12900;SDS011;6518;50.930;5.344;2023-03-11T03:57:01;8.30;;;3.23;;
12900;SDS011;6518;50.930;5.344;2023-03-11T03:59:28;11.53;;;3.60;;
12900;SDS011;6518;50.930;5.344;2023-03-11T04:01:55;9.53;;;3.17;;
12900;SDS011;6518;50.930;5.344;2023-03-11T04:04:22;7.30;;;3.23;;
12900;SDS011;6518;50.930;5.344;2023-03-11T04:06:49;10.47;;;3.27;;
12900;SDS011;6518;50.930;5.344;2023-03-11T04:09:17;9.83;;;3.10;;
12900;SDS011;6518;50.930;5.344;2023-03-11T04:11:44;7.80;;;3.03;;
12900;SDS011;6518;50.930;5.344;2023-03-11T04:14:12;7.97;;;3.67;;
12900;SDS011;6518;50.930;5.344;2023-03-11T04:16:38;8.47;;;3.53;;
12900;SDS011;6518;50.930;5.344;2023-03-11T04:19:05;9.63;;;3.10;;
12900;SDS011;6518;50.930;5.344;2023-03-11T04:21:32;7.67;;;3.40;;
12900;SDS011;6518;50.930;5.344;2023-03-11T04:23:59;7.90;;;3.03;;
12900;SDS011;6518;50.930;5.344;2023-03-11T04:26:28;8.57;;;3.57;;
12900;SDS011;6518;50.930;5.344;2023-03-11T04:28:55;9.10;;;3.60;;
12900;SDS011;6518;50.930;5.344;2023-03-11T04:31:22;5.33;;;2.53;;
12900;SDS011;6518;50.930;5.344;2023-03-11T04:33:49;10.10;;;3.40;;
12900;SDS011;6518;50.930;5.344;2023-03-11T04:36:15;10.70;;;3.43;;
12900;SDS011;6518;50.930;5.344;2023-03-11T04:38:42;5.80;;;3.00;;
12900;SDS011;6518;50.930;5.344;2023-03-11T04:41:09;9.53;;;3.00;;
12900;SDS011;6518;50.930;5.344;2023-03-11T04:43:38;6.87;;;3.60;;
12900;SDS011;6518;50.930;5.344;2023-03-11T04:46:04;7.87;;;3.60;;
12900;SDS011;6518;50.930;5.344;2023-03-11T04:48:31;12.43;;;4.07;;
12900;SDS011;6518;50.930;5.344;2023-03-11T04:50:58;9.13;;;3.73;;
12900;SDS011;6518;50.930;5.344;2023-03-11T04:53:25;7.93;;;3.53;;
12900;SDS011;6518;50.930;5.344;2023-03-11T04:55:52;9.00;;;3.80;;
12900;SDS011;6518;50.930;5.344;2023-03-11T04:58:19;10.90;;;3.63;;
12900;SDS011;6518;50.930;5.344;2023-03-11T05:00:47;7.33;;;3.83;;
12900;SDS011;6518;50.930;5.344;2023-03-11T05:03:14;9.70;;;3.83;;
12900;SDS011;6518;50.930;5.344;2023-03-11T05:05:41;6.90;;;3.40;;
12900;SDS011;6518;50.930;5.344;2023-03-11T05:08:08;8.07;;;4.07;;
12900;SDS011;6518;50.930;5.344;2023-03-11T05:10:35;11.80;;;4.13;;
12900;SDS011;6518;50.930;5.344;2023-03-11T05:13:02;9.37;;;3.73;;
12900;SDS011;6518;50.930;5.344;2023-03-11T05:15:28;9.47;;;3.90;;
12900;SDS011;6518;50.930;5.344;2023-03-11T05:17:57;8.87;;;3.70;;
12900;SDS011;6518;50.930;5.344;2023-03-11T05:20:24;9.57;;;4.20;;
12900;SDS011;6518;50.930;5.344;2023-03-11T05:22:51;9.13;;;4.23;;
12900;SDS011;6518;50.930;5.344;2023-03-11T05:25:17;7.80;;;4.17;;
12900;SDS011;6518;50.930;5.344;2023-03-11T05:27:44;9.23;;;4.00;;
12900;SDS011;6518;50.930;5.344;2023-03-11T05:30:11;11.43;;;4.43;;
12900;SDS011;6518;50.930;5.344;2023-03-11T05:32:40;11.03;;;4.10;;
12900;SDS011;6518;50.930;5.344;2023-03-11T05:35:08;11.70;;;4.83;;
12900;SDS011;6518;50.930;5.344;2023-03-11T05:37:35;12.97;;;4.37;;
12900;SDS011;6518;50.930;5.344;2023-03-11T05:40:03;10.60;;;4.27;;
12900;SDS011;6518;50.930;5.344;2023-03-11T05:42:32;7.27;;;4.30;;
12900;SDS011;6518;50.930;5.344;2023-03-11T05:44:59;11.13;;;4.43;;
12900;SDS011;6518;50.930;5.344;2023-03-11T05:47:26;11.90;;;4.80;;
12900;SDS011;6518;50.930;5.344;2023-03-11T05:49:53;10.53;;;4.73;;
12900;SDS011;6518;50.930;5.344;2023-03-11T05:52:21;10.63;;;4.97;;
12900;SDS011;6518;50.930;5.344;2023-03-11T05:54:48;10.17;;;4.40;;
12900;SDS011;6518;50.930;5.344;2023-03-11T05:57:16;13.27;;;4.93;;
12900;SDS011;6518;50.930;5.344;2023-03-11T05:59:43;10.30;;;4.70;;
12900;SDS011;6518;50.930;5.344;2023-03-11T06:02:10;9.93;;;4.50;;
12900;SDS011;6518;50.930;5.344;2023-03-11T06:04:36;8.77;;;4.83;;
12900;SDS011;6518;50.930;5.344;2023-03-11T06:07:03;9.03;;;4.67;;
12900;SDS011;6518;50.930;5.344;2023-03-11T06:09:31;7.50;;;4.57;;
12900;SDS011;6518;50.930;5.344;2023-03-11T06:12:01;8.03;;;5.03;;
12900;SDS011;6518;50.930;5.344;2023-03-11T06:14:28;8.73;;;4.40;;
12900;SDS011;6518;50.930;5.344;2023-03-11T06:16:56;11.57;;;4.97;;
12900;SDS011;6518;50.930;5.344;2023-03-11T06:19:23;11.57;;;5.67;;
12900;SDS011;6518;50.930;5.344;2023-03-11T06:21:50;13.07;;;5.47;;
12900;SDS011;6518;50.930;5.344;2023-03-11T06:24:17;9.07;;;5.20;;
12900;SDS011;6518;50.930;5.344;2023-03-11T06:26:45;13.07;;;5.50;;
12900;SDS011;6518;50.930;5.344;2023-03-11T06:29:15;11.23;;;5.67;;
12900;SDS011;6518;50.930;5.344;2023-03-11T06:31:42;10.13;;;4.77;;
12900;SDS011;6518;50.930;5.344;2023-03-11T06:34:09;8.83;;;5.17;;
12900;SDS011;6518;50.930;5.344;2023-03-11T06:36:36;11.00;;;5.17;;
12900;SDS011;6518;50.930;5.344;2023-03-11T06:39:03;10.37;;;5.33;;
12900;SDS011;6518;50.930;5.344;2023-03-11T06:41:32;7.60;;;5.20;;
12900;SDS011;6518;50.930;5.344;2023-03-11T06:44:00;18.40;;;6.50;;
12900;SDS011;6518;50.930;5.344;2023-03-11T06:46:28;11.53;;;5.50;;
12900;SDS011;6518;50.930;5.344;2023-03-11T06:48:55;11.23;;;5.20;;
12900;SDS011;6518;50.930;5.344;2023-03-11T06:51:22;7.10;;;4.80;;
12900;SDS011;6518;50.930;5.344;2023-03-11T06:53:49;9.80;;;5.13;;
12900;SDS011;6518;50.930;5.344;2023-03-11T06:56:17;12.23;;;5.40;;
12900;SDS011;6518;50.930;5.344;2023-03-11T06:58:44;14.93;;;5.87;;
12900;SDS011;6518;50.930;5.344;2023-03-11T07:01:14;13.50;;;5.80;;
12900;SDS011;6518;50.930;5.344;2023-03-11T07:03:41;8.63;;;4.93;;
12900;SDS011;6518;50.930;5.344;2023-03-11T07:06:10;12.93;;;5.47;;
12900;SDS011;6518;50.930;5.344;2023-03-11T07:08:38;8.20;;;4.97;;
12900;SDS011;6518;50.930;5.344;2023-03-11T07:11:06;11.67;;;5.10;;
12900;SDS011;6518;50.930;5.344;2023-03-11T07:13:35;9.23;;;5.47;;
12900;SDS011;6518;50.930;5.344;2023-03-11T07:16:03;10.60;;;5.17;;
12900;SDS011;6518;50.930;5.344;2023-03-11T07:18:33;7.70;;;5.00;;
12900;SDS011;6518;50.930;5.344;2023-03-11T07:21:00;12.30;;;5.80;;
12900;SDS011;6518;50.930;5.344;2023-03-11T07:23:27;14.87;;;6.17;;
12900;SDS011;6518;50.930;5.344;2023-03-11T07:25:54;13.73;;;6.30;;
12900;SDS011;6518;50.930;5.344;2023-03-11T07:28:21;11.73;;;5.50;;
12900;SDS011;6518;50.930;5.344;2023-03-11T07:30:49;17.87;;;5.73;;
12900;SDS011;6518;50.930;5.344;2023-03-11T07:33:15;9.43;;;5.07;;
12900;SDS011;6518;50.930;5.344;2023-03-11T07:35:44;10.87;;;5.00;;
12900;SDS011;6518;50.930;5.344;2023-03-11T07:38:13;11.50;;;5.63;;
12900;SDS011;6518;50.930;5.344;2023-03-11T07:40:40;11.07;;;5.17;;
12900;SDS011;6518;50.930;5.344;2023-03-11T07:43:07;13.47;;;5.37;;
12900;SDS011;6518;50.930;5.344;2023-03-11T07:45:34;13.90;;;5.07;;
12900;SDS011;6518;50.930;5.344;2023-03-11T07:48:01;10.50;;;5.10;;
12900;SDS011;6518;50.930;5.344;2023-03-11T07:50:28;7.97;;;4.70;;
12900;SDS011;6518;50.930;5.344;2023-03-11T07:52:56;9.37;;;5.27;;
12900;SDS011;6518;50.930;5.344;2023-03-11T07:55:23;7.80;;;5.23;;
12900;SDS011;6518;50.930;5.344;2023-03-11T07:57:50;9.00;;;5.37;;
12900;SDS011;6518;50.930;5.344;2023-03-11T08:00:17;15.67;;;6.43;;
12900;SDS011;6518;50.930;5.344;2023-03-11T08:02:45;9.43;;;5.47;;
12900;SDS011;6518;50.930;5.344;2023-03-11T08:05:11;9.83;;;5.27;;
12900;SDS011;6518;50.930;5.344;2023-03-11T08:07:38;9.03;;;5.23;;
12900;SDS011;6518;50.930;5.344;2023-03-11T08:10:07;13.20;;;5.67;;
12900;SDS011;6518;50.930;5.344;2023-03-11T08:12:34;8.97;;;5.03;;
12900;SDS011;6518;50.930;5.344;2023-03-11T08:15:01;8.67;;;5.10;;
12900;SDS011;6518;50.930;5.344;2023-03-11T08:17:29;13.80;;;5.80;;
12900;SDS011;6518;50.930;5.344;2023-03-11T08:19:56;11.80;;;5.87;;
12900;SDS011;6518;50.930;5.344;2023-03-11T08:22:22;11.53;;;5.50;;
12900;SDS011;6518;50.930;5.344;2023-03-11T08:24:50;8.23;;;5.00;;
12900;SDS011;6518;50.930;5.344;2023-03-11T08:27:18;9.20;;;5.07;;
12900;SDS011;6518;50.930;5.344;2023-03-11T08:29:46;11.60;;;5.37;;
12900;SDS011;6518;50.930;5.344;2023-03-11T08:32:13;17.50;;;5.80;;
12900;SDS011;6518;50.930;5.344;2023-03-11T08:34:39;12.27;;;5.67;;
12900;SDS011;6518;50.930;5.344;2023-03-11T08:37:06;9.70;;;5.47;;
12900;SDS011;6518;50.930;5.344;2023-03-11T08:39:33;9.70;;;5.30;;
12900;SDS011;6518;50.930;5.344;2023-03-11T08:42:00;11.17;;;5.67;;
12900;SDS011;6518;50.930;5.344;2023-03-11T08:44:29;10.77;;;5.20;;
12900;SDS011;6518;50.930;5.344;2023-03-11T08:46:56;9.90;;;5.23;;
12900;SDS011;6518;50.930;5.344;2023-03-11T08:49:23;11.37;;;5.17;;
12900;SDS011;6518;50.930;5.344;2023-03-11T08:51:50;10.50;;;5.43;;
12900;SDS011;6518;50.930;5.344;2023-03-11T08:54:17;16.17;;;5.57;;
12900;SDS011;6518;50.930;5.344;2023-03-11T08:56:43;8.67;;;5.47;;
12900;SDS011;6518;50.930;5.344;2023-03-11T08:59:11;12.97;;;5.27;;
12900;SDS011;6518;50.930;5.344;2023-03-11T09:01:40;9.37;;;4.60;;
12900;SDS011;6518;50.930;5.344;2023-03-11T09:04:07;9.57;;;4.73;;
12900;SDS011;6518;50.930;5.344;2023-03-11T09:06:34;11.43;;;4.70;;
12900;SDS011;6518;50.930;5.344;2023-03-11T09:09:01;8.63;;;4.23;;
12900;SDS011;6518;50.930;5.344;2023-03-11T09:11:28;7.97;;;4.73;;
12900;SDS011;6518;50.930;5.344;2023-03-11T09:13:55;10.63;;;4.80;;
12900;SDS011;6518;50.930;5.344;2023-03-11T09:16:22;7.40;;;3.90;;
12900;SDS011;6518;50.930;5.344;2023-03-11T09:18:51;8.03;;;3.87;;
12900;SDS011;6518;50.930;5.344;2023-03-11T09:21:18;9.10;;;4.40;;
12900;SDS011;6518;50.930;5.344;2023-03-11T09:23:46;9.47;;;3.70;;
12900;SDS011;6518;50.930;5.344;2023-03-11T09:26:13;5.57;;;2.90;;
12900;SDS011;6518;50.930;5.344;2023-03-11T09:28:40;5.87;;;2.07;;
12900;SDS011;6518;50.930;5.344;2023-03-11T09:31:07;7.10;;;2.17;;
12900;SDS011;6518;50.930;5.344;2023-03-11T09:33:35;6.50;;;2.10;;
12900;SDS011;6518;50.930;5.344;2023-03-11T09:36:05;4.97;;;1.90;;
12900;SDS011;6518;50.930;5.344;2023-03-11T09:38:33;6.00;;;2.20;;
12900;SDS011;6518;50.930;5.344;2023-03-11T09:41:00;4.20;;;1.70;;
12900;SDS011;6518;50.930;5.344;2023-03-11T09:43:40;5.23;;;1.90;;
12900;SDS011;6518;50.930;5.344;2023-03-11T09:46:26;6.87;;;1.90;;
12900;SDS011;6518;50.930;5.344;2023-03-11T09:49:03;4.30;;;1.27;;
12900;SDS011;6518;50.930;5.344;2023-03-11T09:51:41;3.13;;;1.57;;
12900;SDS011;6518;50.930;5.344;2023-03-11T09:54:12;4.07;;;1.63;;
12900;SDS011;6518;50.930;5.344;2023-03-11T09:56:39;8.03;;;1.60;;
12900;SDS011;6518;50.930;5.344;2023-03-11T09:59:08;4.93;;;2.00;;
12900;SDS011;6518;50.930;5.344;2023-03-11T10:01:43;5.40;;;1.37;;
12900;SDS011;6518;50.930;5.344;2023-03-11T10:04:15;4.70;;;1.73;;
12900;SDS011;6518;50.930;5.344;2023-03-11T10:06:48;3.20;;;1.47;;
12900;SDS011;6518;50.930;5.344;2023-03-11T10:09:24;5.17;;;1.50;;
12900;SDS011;6518;50.930;5.344;2023-03-11T10:12:08;2.90;;;1.07;;
12900;SDS011;6518;50.930;5.344;2023-03-11T10:14:47;4.33;;;1.20;;
12900;SDS011;6518;50.930;5.344;2023-03-11T10:17:38;5.87;;;1.07;;
12900;SDS011;6518;50.930;5.344;2023-03-11T10:20:13;3.47;;;0.90;;
12900;SDS011;6518;50.930;5.344;2023-03-11T10:22:48;3.40;;;1.03;;
12900;SDS011;6518;50.930;5.344;2023-03-11T10:25:21;4.10;;;1.00;;
12900;SDS011;6518;50.930;5.344;2023-03-11T10:27:54;3.40;;;1.17;;
12900;SDS011;6518;50.930;5.344;2023-03-11T10:30:28;4.70;;;1.23;;
12900;SDS011;6518;50.930;5.344;2023-03-11T10:33:00;3.53;;;1.17;;
12900;SDS011;6518;50.930;5.344;2023-03-11T10:35:34;3.37;;;0.90;;
12900;SDS011;6518;50.930;5.344;2023-03-11T10:38:06;3.87;;;1.30;;
12900;SDS011;6518;50.930;5.344;2023-03-11T10:40:40;5.10;;;1.40;;
12900;SDS011;6518;50.930;5.344;2023-03-11T10:43:10;5.73;;;1.40;;
12900;SDS011;6518;50.930;5.344;2023-03-11T10:45:41;1.87;;;1.00;;
12900;SDS011;6518;50.930;5.344;2023-03-11T10:48:10;5.50;;;1.23;;
12900;SDS011;6518;50.930;5.344;2023-03-11T10:50:41;5.10;;;1.43;;
12900;SDS011;6518;50.930;5.344;2023-03-11T10:53:16;5.07;;;1.37;;
12900;SDS011;6518;50.930;5.344;2023-03-11T10:55:46;4.70;;;1.40;;
12900;SDS011;6518;50.930;5.344;2023-03-11T10:58:15;4.37;;;1.20;;
12900;SDS011;6518;50.930;5.344;2023-03-11T11:00:43;2.50;;;1.20;;
12900;SDS011;6518;50.930;5.344;2023-03-11T11:03:16;3.47;;;1.33;;
12900;SDS011;6518;50.930;5.344;2023-03-11T11:05:55;5.97;;;1.43;;
12900;SDS011;6518;50.930;5.344;2023-03-11T11:08:25;3.03;;;1.10;;
12900;SDS011;6518;50.930;5.344;2023-03-11T11:10:53;4.17;;;1.60;;
12900;SDS011;6518;50.930;5.344;2023-03-11T11:13:21;6.87;;;1.40;;
12900;SDS011;6518;50.930;5.344;2023-03-11T11:15:52;6.60;;;1.50;;
12900;SDS011;6518;50.930;5.344;2023-03-11T11:18:22;5.33;;;1.50;;
12900;SDS011;6518;50.930;5.344;2023-03-11T11:20:56;4.60;;;1.67;;
12900;SDS011;6518;50.930;5.344;2023-03-11T11:23:30;4.83;;;1.57;;
12900;SDS011;6518;50.930;5.344;2023-03-11T11:26:03;3.20;;;1.20;;
12900;SDS011;6518;50.930;5.344;2023-03-11T11:28:33;3.87;;;1.33;;
12900;SDS011;6518;50.930;5.344;2023-03-11T11:31:00;5.77;;;2.00;;
12900;SDS011;6518;50.930;5.344;2023-03-11T11:33:29;7.33;;;1.33;;
12900;SDS011;6518;50.930;5.344;2023-03-11T11:35:58;3.90;;;1.57;;
12900;SDS011;6518;50.930;5.344;2023-03-11T11:38:28;4.47;;;1.30;;
12900;SDS011;6518;50.930;5.344;2023-03-11T11:40:57;10.50;;;1.80;;
12900;SDS011;6518;50.930;5.344;2023-03-11T11:43:32;2.73;;;1.43;;
12900;SDS011;6518;50.930;5.344;2023-03-11T11:46:09;4.33;;;1.60;;
12900;SDS011;6518;50.930;5.344;2023-03-11T11:48:43;9.00;;;2.30;;
12900;SDS011;6518;50.930;5.344;2023-03-11T11:51:15;2.23;;;1.13;;
12900;SDS011;6518;50.930;5.344;2023-03-11T11:53:47;3.30;;;1.20;;
12900;SDS011;6518;50.930;5.344;2023-03-11T11:56:17;2.53;;;1.30;;
12900;SDS011;6518;50.930;5.344;2023-03-11T11:58:44;1.67;;;1.10;;
12900;SDS011;6518;50.930;5.344;2023-03-11T12:01:13;7.17;;;1.10;;
12900;SDS011;6518;50.930;5.344;2023-03-11T12:03:52;4.10;;;1.30;;
12900;SDS011;6518;50.930;5.344;2023-03-11T12:06:37;11.70;;;1.70;;
12900;SDS011;6518;50.930;5.344;2023-03-11T12:09:16;3.63;;;1.40;;
12900;SDS011;6518;50.930;5.344;2023-03-11T12:11:51;7.17;;;1.60;;
12900;SDS011;6518;50.930;5.344;2023-03-11T12:14:24;6.10;;;1.50;;
12900;SDS011;6518;50.930;5.344;2023-03-11T12:16:55;2.40;;;1.40;;
12900;SDS011;6518;50.930;5.344;2023-03-11T12:19:32;2.73;;;1.33;;
12900;SDS011;6518;50.930;5.344;2023-03-11T12:25:10;5.63;;;1.70;;
12900;SDS011;6518;50.930;5.344;2023-03-11T12:27:48;2.90;;;1.13;;
12900;SDS011;6518;50.930;5.344;2023-03-11T12:30:20;6.30;;;1.40;;
12900;SDS011;6518;50.930;5.344;2023-03-11T12:32:52;3.27;;;1.30;;
12900;SDS011;6518;50.930;5.344;2023-03-11T12:35:22;5.33;;;1.40;;
12900;SDS011;6518;50.930;5.344;2023-03-11T12:37:55;5.20;;;1.43;;
12900;SDS011;6518;50.930;5.344;2023-03-11T12:40:48;3.87;;;1.40;;
12900;SDS011;6518;50.930;5.344;2023-03-11T12:43:24;3.73;;;1.50;;
12900;SDS011;6518;50.930;5.344;2023-03-11T12:46:12;4.73;;;1.50;;
12900;SDS011;6518;50.930;5.344;2023-03-11T12:48:41;4.13;;;1.97;;
12900;SDS011;6518;50.930;5.344;2023-03-11T12:54:21;3.53;;;1.30;;
12900;SDS011;6518;50.930;5.344;2023-03-11T12:56:56;4.23;;;1.40;;
12900;SDS011;6518;50.930;5.344;2023-03-11T12:59:44;5.47;;;1.50;;
12900;SDS011;6518;50.930;5.344;2023-03-11T13:05:25;5.63;;;1.30;;
12900;SDS011;6518;50.930;5.344;2023-03-11T13:07:57;4.37;;;1.47;;
12900;SDS011;6518;50.930;5.344;2023-03-11T13:10:37;2.87;;;1.33;;
12900;SDS011;6518;50.930;5.344;2023-03-11T13:25:28;6.50;;;1.30;;
12900;SDS011;6518;50.930;5.344;2023-03-11T13:27:59;4.03;;;1.37;;
12900;SDS011;6518;50.930;5.344;2023-03-11T13:30:41;5.83;;;1.60;;
12900;SDS011;6518;50.930;5.344;2023-03-11T13:33:21;3.43;;;1.10;;
12900;SDS011;6518;50.930;5.344;2023-03-11T13:36:03;3.30;;;1.27;;
12900;SDS011;6518;50.930;5.344;2023-03-11T13:38:44;5.67;;;1.40;;
12900;SDS011;6518;50.930;5.344;2023-03-11T13:41:30;6.23;;;1.70;;
12900;SDS011;6518;50.930;5.344;2023-03-11T13:44:02;2.90;;;1.30;;
12900;SDS011;6518;50.930;5.344;2023-03-11T13:46:39;4.37;;;1.50;;
12900;SDS011;6518;50.930;5.344;2023-03-11T13:49:14;2.43;;;1.00;;
12900;SDS011;6518;50.930;5.344;2023-03-11T13:51:50;2.97;;;1.10;;
12900;SDS011;6518;50.930;5.344;2023-03-11T13:57:14;4.00;;;1.50;;
12900;SDS011;6518;50.930;5.344;2023-03-11T13:59:50;3.07;;;1.20;;
12900;SDS011;6518;50.930;5.344;2023-03-11T14:02:20;4.43;;;1.30;;
12900;SDS011;6518;50.930;5.344;2023-03-11T14:04:49;4.63;;;1.27;;
12900;SDS011;6518;50.930;5.344;2023-03-11T14:07:20;4.93;;;1.50;;
12900;SDS011;6518;50.930;5.344;2023-03-11T14:12:47;4.03;;;1.20;;
12900;SDS011;6518;50.930;5.344;2023-03-11T14:15:15;4.73;;;1.40;;
12900;SDS011;6518;50.930;5.344;2023-03-11T14:17:46;4.93;;;1.20;;
12900;SDS011;6518;50.930;5.344;2023-03-11T14:20:14;4.20;;;1.27;;
12900;SDS011;6518;50.930;5.344;2023-03-11T14:22:45;4.60;;;1.10;;
12900;SDS011;6518;50.930;5.344;2023-03-11T14:25:15;4.97;;;1.57;;
12900;SDS011;6518;50.930;5.344;2023-03-11T14:27:47;3.50;;;1.20;;
12900;SDS011;6518;50.930;5.344;2023-03-11T14:30:20;10.10;;;1.40;;
12900;SDS011;6518;50.930;5.344;2023-03-11T14:32:57;4.10;;;1.20;;
12900;SDS011;6518;50.930;5.344;2023-03-11T14:35:26;7.97;;;1.50;;
12900;SDS011;6518;50.930;5.344;2023-03-11T14:37:54;4.43;;;1.53;;
12900;SDS011;6518;50.930;5.344;2023-03-11T14:40:21;5.13;;;1.20;;
12900;SDS011;6518;50.930;5.344;2023-03-11T14:42:50;2.47;;;1.27;;
12900;SDS011;6518;50.930;5.344;2023-03-11T14:45:19;4.97;;;1.63;;
12900;SDS011;6518;50.930;5.344;2023-03-11T14:47:49;4.70;;;1.07;;
12900;SDS011;6518;50.930;5.344;2023-03-11T14:50:23;4.80;;;1.50;;
12900;SDS011;6518;50.930;5.344;2023-03-11T14:52:53;4.90;;;1.37;;
12900;SDS011;6518;50.930;5.344;2023-03-11T14:55:24;4.17;;;1.63;;
12900;SDS011;6518;50.930;5.344;2023-03-11T14:57:55;3.97;;;1.30;;
12900;SDS011;6518;50.930;5.344;2023-03-11T15:00:26;2.43;;;1.30;;
12900;SDS011;6518;50.930;5.344;2023-03-11T15:03:00;3.77;;;1.23;;
12900;SDS011;6518;50.930;5.344;2023-03-11T15:05:38;2.93;;;1.20;;
12900;SDS011;6518;50.930;5.344;2023-03-11T15:08:10;6.03;;;1.53;;
12900;SDS011;6518;50.930;5.344;2023-03-11T15:10:37;3.20;;;0.90;;
12900;SDS011;6518;50.930;5.344;2023-03-11T15:13:05;4.07;;;1.10;;
12900;SDS011;6518;50.930;5.344;2023-03-11T15:15:33;3.97;;;1.60;;
12900;SDS011;6518;50.930;5.344;2023-03-11T15:18:01;4.97;;;1.23;;
12900;SDS011;6518;50.930;5.344;2023-03-11T15:20:29;4.07;;;1.70;;
12900;SDS011;6518;50.930;5.344;2023-03-11T15:22:59;2.70;;;1.40;;
12900;SDS011;6518;50.930;5.344;2023-03-11T15:25:27;4.37;;;1.27;;
12900;SDS011;6518;50.930;5.344;2023-03-11T15:27:57;8.77;;;1.30;;
12900;SDS011;6518;50.930;5.344;2023-03-11T15:30:25;5.83;;;1.57;;
12900;SDS011;6518;50.930;5.344;2023-03-11T15:32:54;7.83;;;1.73;;
12900;SDS011;6518;50.930;5.344;2023-03-11T15:35:23;4.83;;;1.20;;
12900;SDS011;6518;50.930;5.344;2023-03-11T15:37:51;6.20;;;1.43;;
12900;SDS011;6518;50.930;5.344;2023-03-11T15:40:48;5.63;;;1.77;;